sensor_id;sensor_type;location;lat;lon;timestamp;pressure;altitude;pressure_sealevel;temperature
28305;BMP280;15569;42.652;23.040;2023-05-09T00:00:24;93237.75;;;15.62
28305;BMP280;15569;42.652;23.040;2023-05-09T00:02:50;93227.72;;;15.49
28305;BMP280;15569;42.652;23.040;2023-05-09T00:05:15;93224.69;;;15.61
28305;BMP280;15569;42.652;23.040;2023-05-09T00:07:41;93222.25;;;15.49
28305;BMP280;15569;42.652;23.040;2023-05-09T00:10:07;93229.91;;;15.53
28305;BMP280;15569;42.652;23.040;2023-05-09T00:12:32;93230.66;;;15.55
28305;BMP280;15569;42.652;23.040;2023-05-09T00:14:58;93227.28;;;15.57
28305;BMP280;15569;42.652;23.040;2023-05-09T00:17:23;93228.69;;;15.58
28305;BMP280;15569;42.652;23.040;2023-05-09T00:19:50;93217.53;;;15.52
28305;BMP280;15569;42.652;23.040;2023-05-09T00:22:17;93217.03;;;15.57
28305;BMP280;15569;42.652;23.040;2023-05-09T00:24:46;93223.63;;;15.31
28305;BMP280;15569;42.652;23.040;2023-05-09T00:27:11;93218.63;;;15.05
28305;BMP280;15569;42.652;23.040;2023-05-09T00:29:36;93214.97;;;15.18
28305;BMP280;15569;42.652;23.040;2023-05-09T00:32:02;93217.97;;;14.87
28305;BMP280;15569;42.652;23.040;2023-05-09T00:34:27;93209.16;;;14.91
28305;BMP280;15569;42.652;23.040;2023-05-09T00:36:53;93212.34;;;15.03
28305;BMP280;15569;42.652;23.040;2023-05-09T00:39:18;93222.69;;;15.04
28305;BMP280;15569;42.652;23.040;2023-05-09T00:41:43;93217.72;;;14.99
28305;BMP280;15569;42.652;23.040;2023-05-09T00:44:09;93213.13;;;14.68
28305;BMP280;15569;42.652;23.040;2023-05-09T00:46:34;93212.09;;;14.42
28305;BMP280;15569;42.652;23.040;2023-05-09T00:49:00;93206.91;;;13.97
28305;BMP280;15569;42.652;23.040;2023-05-09T00:51:27;93212.75;;;13.90
28305;BMP280;15569;42.652;23.040;2023-05-09T00:53:52;93216.63;;;13.85
28305;BMP280;15569;42.652;23.040;2023-05-09T00:56:18;93218.28;;;13.59
28305;BMP280;15569;42.652;23.040;2023-05-09T00:58:44;93227.06;;;13.73
28305;BMP280;15569;42.652;23.040;2023-05-09T01:01:09;93216.81;;;13.89
28305;BMP280;15569;42.652;23.040;2023-05-09T01:03:37;93215.38;;;14.03
28305;BMP280;15569;42.652;23.040;2023-05-09T01:08:36;93213.75;;;14.49
28305;BMP280;15569;42.652;23.040;2023-05-09T01:11:23;93212.09;;;14.42
28305;BMP280;15569;42.652;23.040;2023-05-09T01:14:21;93208.03;;;14.43
28305;BMP280;15569;42.652;23.040;2023-05-09T01:17:04;93206.34;;;14.34
28305;BMP280;15569;42.652;23.040;2023-05-09T01:22:25;93224.81;;;14.18
28305;BMP280;15569;42.652;23.040;2023-05-09T01:25:32;93222.78;;;14.18
28305;BMP280;15569;42.652;23.040;2023-05-09T01:28:13;93222.78;;;14.18
28305;BMP280;15569;42.652;23.040;2023-05-09T01:30:45;93222.63;;;14.14
28305;BMP280;15569;42.652;23.040;2023-05-09T01:33:12;93220.84;;;14.21
28305;BMP280;15569;42.652;23.040;2023-05-09T01:35:38;93217.81;;;14.30
28305;BMP280;15569;42.652;23.040;2023-05-09T01:38:10;93220.78;;;14.36
28305;BMP280;15569;42.652;23.040;2023-05-09T01:40:39;93202.94;;;14.18
28305;BMP280;15569;42.652;23.040;2023-05-09T01:43:08;93222.16;;;14.20
28305;BMP280;15569;42.652;23.040;2023-05-09T01:45:36;93230.47;;;14.22
28305;BMP280;15569;42.652;23.040;2023-05-09T01:48:03;93238.09;;;14.08
28305;BMP280;15569;42.652;23.040;2023-05-09T01:50:30;93239.59;;;14.11
28305;BMP280;15569;42.652;23.040;2023-05-09T01:52:57;93230.88;;;13.99
28305;BMP280;15569;42.652;23.040;2023-05-09T01:55:27;93239.00;;;13.97
28305;BMP280;15569;42.652;23.040;2023-05-09T01:57:54;93240.72;;;14.06
28305;BMP280;15569;42.652;23.040;2023-05-09T02:00:21;93217.00;;;14.10
28305;BMP280;15569;42.652;23.040;2023-05-09T02:02:48;93236.00;;;14.24
28305;BMP280;15569;42.652;23.040;2023-05-09T02:05:14;93225.50;;;14.34
28305;BMP280;15569;42.652;23.040;2023-05-09T02:07:41;93235.34;;;14.41
28305;BMP280;15569;42.652;23.040;2023-05-09T02:10:08;93224.16;;;14.35
28305;BMP280;15569;42.652;23.040;2023-05-09T02:12:34;93229.16;;;14.41
28305;BMP280;15569;42.652;23.040;2023-05-09T02:14:59;93234.78;;;14.45
28305;BMP280;15569;42.652;23.040;2023-05-09T02:17:25;93227.88;;;14.44
28305;BMP280;15569;42.652;23.040;2023-05-09T02:19:53;93230.25;;;14.33
28305;BMP280;15569;42.652;23.040;2023-05-09T02:22:18;93229.69;;;14.37
28305;BMP280;15569;42.652;23.040;2023-05-09T02:24:44;93228.59;;;14.26
28305;BMP280;15569;42.652;23.040;2023-05-09T02:27:10;93232.84;;;14.47
28305;BMP280;15569;42.652;23.040;2023-05-09T02:29:40;93241.19;;;14.33
28305;BMP280;15569;42.652;23.040;2023-05-09T02:32:12;93234.63;;;14.07
28305;BMP280;15569;42.652;23.040;2023-05-09T02:34:39;93222.22;;;14.04
28305;BMP280;15569;42.652;23.040;2023-05-09T02:37:06;93232.38;;;14.02
28305;BMP280;15569;42.652;23.040;2023-05-09T02:39:32;93233.09;;;14.20
28305;BMP280;15569;42.652;23.040;2023-05-09T02:42:06;93229.91;;;14.25
28305;BMP280;15569;42.652;23.040;2023-05-09T02:44:32;93228.13;;;14.32
28305;BMP280;15569;42.652;23.040;2023-05-09T02:46:58;93238.50;;;14.35
28305;BMP280;15569;42.652;23.040;2023-05-09T02:49:24;93233.75;;;14.36
28305;BMP280;15569;42.652;23.040;2023-05-09T02:51:49;93233.22;;;14.40
28305;BMP280;15569;42.652;23.040;2023-05-09T02:54:14;93239.38;;;14.40
28305;BMP280;15569;42.652;23.040;2023-05-09T02:56:40;93243.19;;;14.15
28305;BMP280;15569;42.652;23.040;2023-05-09T02:59:05;93243.66;;;14.10
28305;BMP280;15569;42.652;23.040;2023-05-09T03:01:31;93246.97;;;13.91
28305;BMP280;15569;42.652;23.040;2023-05-09T03:03:56;93244.19;;;14.24
28305;BMP280;15569;42.652;23.040;2023-05-09T03:06:22;93240.47;;;14.33
28305;BMP280;15569;42.652;23.040;2023-05-09T03:08:47;93241.66;;;14.28
28305;BMP280;15569;42.652;23.040;2023-05-09T03:11:13;93242.19;;;14.42
28305;BMP280;15569;42.652;23.040;2023-05-09T03:13:38;93238.34;;;14.49
28305;BMP280;15569;42.652;23.040;2023-05-09T03:16:04;93254.63;;;14.45
28305;BMP280;15569;42.652;23.040;2023-05-09T03:18:29;93256.19;;;14.50
28305;BMP280;15569;42.652;23.040;2023-05-09T03:20:54;93236.66;;;14.40
28305;BMP280;15569;42.652;23.040;2023-05-09T03:23:20;93248.19;;;14.21
28305;BMP280;15569;42.652;23.040;2023-05-09T03:25:45;93260.91;;;14.14
28305;BMP280;15569;42.652;23.040;2023-05-09T03:28:10;93259.13;;;13.88
28305;BMP280;15569;42.652;23.040;2023-05-09T03:30:36;93268.28;;;13.94
28305;BMP280;15569;42.652;23.040;2023-05-09T03:33:01;93275.50;;;13.88
28305;BMP280;15569;42.652;23.040;2023-05-09T03:35:29;93275.34;;;13.84
28305;BMP280;15569;42.652;23.040;2023-05-09T03:37:54;93267.75;;;13.98
28305;BMP280;15569;42.652;23.040;2023-05-09T03:40:20;93277.78;;;14.09
28305;BMP280;15569;42.652;23.040;2023-05-09T03:42:45;93279.63;;;14.04
28305;BMP280;15569;42.652;23.040;2023-05-09T03:45:11;93281.75;;;14.06
28305;BMP280;15569;42.652;23.040;2023-05-09T03:47:36;93266.06;;;14.24
28305;BMP280;15569;42.652;23.040;2023-05-09T03:50:01;93279.47;;;14.00
28305;BMP280;15569;42.652;23.040;2023-05-09T03:52:28;93276.22;;;14.04
28305;BMP280;15569;42.652;23.040;2023-05-09T03:54:53;93280.75;;;13.66
28305;BMP280;15569;42.652;23.040;2023-05-09T03:57:19;93278.97;;;13.57
28305;BMP280;15569;42.652;23.040;2023-05-09T03:59:44;93271.75;;;13.79
28305;BMP280;15569;42.652;23.040;2023-05-09T04:02:10;93267.50;;;13.76
28305;BMP280;15569;42.652;23.040;2023-05-09T04:04:35;93277.00;;;13.75
28305;BMP280;15569;42.652;23.040;2023-05-09T04:07:01;93281.88;;;13.92
28305;BMP280;15569;42.652;23.040;2023-05-09T04:09:26;93274.34;;;14.08
28305;BMP280;15569;42.652;23.040;2023-05-09T04:11:53;93263.00;;;13.98
28305;BMP280;15569;42.652;23.040;2023-05-09T04:14:18;93281.34;;;14.13
28305;BMP280;15569;42.652;23.040;2023-05-09T04:16:43;93263.09;;;14.18
28305;BMP280;15569;42.652;23.040;2023-05-09T04:19:09;93280.59;;;14.11
28305;BMP280;15569;42.652;23.040;2023-05-09T04:21:34;93272.44;;;14.28
28305;BMP280;15569;42.652;23.040;2023-05-09T04:24:00;93275.16;;;14.28
28305;BMP280;15569;42.652;23.040;2023-05-09T04:26:25;93269.25;;;14.34
28305;BMP280;15569;42.652;23.040;2023-05-09T04:28:51;93272.28;;;14.60
28305;BMP280;15569;42.652;23.040;2023-05-09T04:31:17;93274.03;;;14.86
28305;BMP280;15569;42.652;23.040;2023-05-09T04:33:43;93272.25;;;15.12
28305;BMP280;15569;42.652;23.040;2023-05-09T04:36:08;93269.81;;;15.20
28305;BMP280;15569;42.652;23.040;2023-05-09T04:38:34;93270.78;;;15.47
28305;BMP280;15569;42.652;23.040;2023-05-09T04:41:00;93263.22;;;15.65
28305;BMP280;15569;42.652;23.040;2023-05-09T04:43:25;93267.47;;;15.31
28305;BMP280;15569;42.652;23.040;2023-05-09T04:45:52;93267.81;;;15.03
28305;BMP280;15569;42.652;23.040;2023-05-09T04:48:17;93276.88;;;15.25
28305;BMP280;15569;42.652;23.040;2023-05-09T04:50:43;93261.19;;;15.28
28305;BMP280;15569;42.652;23.040;2023-05-09T04:53:08;93276.34;;;15.49
28305;BMP280;15569;42.652;23.040;2023-05-09T04:55:35;93270.66;;;15.82
28305;BMP280;15569;42.652;23.040;2023-05-09T04:58:00;93268.84;;;16.10
28305;BMP280;15569;42.652;23.040;2023-05-09T05:00:25;93269.84;;;16.18
28305;BMP280;15569;42.652;23.040;2023-05-09T05:02:51;93268.94;;;15.73
28305;BMP280;15569;42.652;23.040;2023-05-09T05:05:16;93275.13;;;15.34
28305;BMP280;15569;42.652;23.040;2023-05-09T05:07:42;93285.56;;;15.40
28305;BMP280;15569;42.652;23.040;2023-05-09T05:10:07;93279.84;;;15.51
28305;BMP280;15569;42.652;23.040;2023-05-09T05:12:33;93273.38;;;15.43
28305;BMP280;15569;42.652;23.040;2023-05-09T05:14:58;93282.56;;;15.32
28305;BMP280;15569;42.652;23.040;2023-05-09T05:17:24;93276.91;;;15.65
28305;BMP280;15569;42.652;23.040;2023-05-09T05:19:50;93279.44;;;15.59
28305;BMP280;15569;42.652;23.040;2023-05-09T05:22:15;93279.00;;;15.47
28305;BMP280;15569;42.652;23.040;2023-05-09T05:24:40;93269.59;;;15.52
28305;BMP280;15569;42.652;23.040;2023-05-09T05:27:06;93276.25;;;15.47
28305;BMP280;15569;42.652;23.040;2023-05-09T05:29:31;93265.47;;;15.70
28305;BMP280;15569;42.652;23.040;2023-05-09T05:31:57;93270.72;;;15.64
28305;BMP280;15569;42.652;23.040;2023-05-09T05:34:22;93271.31;;;16.02
28305;BMP280;15569;42.652;23.040;2023-05-09T05:36:47;93262.19;;;15.56
28305;BMP280;15569;42.652;23.040;2023-05-09T05:39:13;93271.06;;;15.55
28305;BMP280;15569;42.652;23.040;2023-05-09T05:41:38;93273.72;;;15.72
28305;BMP280;15569;42.652;23.040;2023-05-09T05:44:04;93253.75;;;15.89
28305;BMP280;15569;42.652;23.040;2023-05-09T05:46:29;93256.88;;;16.21
28305;BMP280;15569;42.652;23.040;2023-05-09T05:48:55;93269.13;;;16.18
28305;BMP280;15569;42.652;23.040;2023-05-09T05:51:20;93269.78;;;16.38
28305;BMP280;15569;42.652;23.040;2023-05-09T05:53:46;93276.72;;;16.41
28305;BMP280;15569;42.652;23.040;2023-05-09T05:56:11;93269.06;;;16.59
28305;BMP280;15569;42.652;23.040;2023-05-09T05:58:36;93256.31;;;16.91
28305;BMP280;15569;42.652;23.040;2023-05-09T06:01:02;93264.50;;;16.24
28305;BMP280;15569;42.652;23.040;2023-05-09T06:03:27;93267.25;;;16.24
28305;BMP280;15569;42.652;23.040;2023-05-09T06:05:53;93257.31;;;16.35
28305;BMP280;15569;42.652;23.040;2023-05-09T06:08:19;93263.50;;;16.36
28305;BMP280;15569;42.652;23.040;2023-05-09T06:10:45;93261.91;;;15.87
28305;BMP280;15569;42.652;23.040;2023-05-09T06:13:10;93263.56;;;16.38
28305;BMP280;15569;42.652;23.040;2023-05-09T06:15:36;93263.81;;;16.67
28305;BMP280;15569;42.652;23.040;2023-05-09T06:18:01;93249.03;;;16.55
28305;BMP280;15569;42.652;23.040;2023-05-09T06:20:27;93243.81;;;16.86
28305;BMP280;15569;42.652;23.040;2023-05-09T06:22:52;93249.34;;;16.88
28305;BMP280;15569;42.652;23.040;2023-05-09T06:25:18;93256.06;;;16.83
28305;BMP280;15569;42.652;23.040;2023-05-09T06:27:43;93255.81;;;16.75
28305;BMP280;15569;42.652;23.040;2023-05-09T06:30:09;93247.69;;;17.01
28305;BMP280;15569;42.652;23.040;2023-05-09T06:32:34;93254.91;;;17.14
28305;BMP280;15569;42.652;23.040;2023-05-09T06:35:00;93249.03;;;17.02
28305;BMP280;15569;42.652;23.040;2023-05-09T06:37:25;93248.75;;;16.68
28305;BMP280;15569;42.652;23.040;2023-05-09T06:39:50;93249.75;;;17.02
28305;BMP280;15569;42.652;23.040;2023-05-09T06:42:16;93247.19;;;16.85
28305;BMP280;15569;42.652;23.040;2023-05-09T06:47:13;93255.50;;;16.87
28305;BMP280;15569;42.652;23.040;2023-05-09T06:49:38;93251.13;;;17.01
28305;BMP280;15569;42.652;23.040;2023-05-09T06:52:04;93255.16;;;16.75
28305;BMP280;15569;42.652;23.040;2023-05-09T06:54:29;93242.16;;;16.77
28305;BMP280;15569;42.652;23.040;2023-05-09T06:56:54;93246.00;;;16.68
28305;BMP280;15569;42.652;23.040;2023-05-09T06:59:20;93238.78;;;16.79
28305;BMP280;15569;42.652;23.040;2023-05-09T07:01:45;93236.78;;;16.81
28305;BMP280;15569;42.652;23.040;2023-05-09T07:04:10;93233.94;;;16.77
28305;BMP280;15569;42.652;23.040;2023-05-09T07:06:36;93225.56;;;16.73
28305;BMP280;15569;42.652;23.040;2023-05-09T07:09:01;93208.31;;;16.26
28305;BMP280;15569;42.652;23.040;2023-05-09T07:11:33;93235.56;;;16.41
28305;BMP280;15569;42.652;23.040;2023-05-09T07:13:59;93228.78;;;16.66
28305;BMP280;15569;42.652;23.040;2023-05-09T07:16:24;93238.09;;;16.35
28305;BMP280;15569;42.652;23.040;2023-05-09T07:18:49;93233.00;;;16.26
28305;BMP280;15569;42.652;23.040;2023-05-09T07:21:15;93237.16;;;16.27
28305;BMP280;15569;42.652;23.040;2023-05-09T07:23:40;93237.28;;;16.52
28305;BMP280;15569;42.652;23.040;2023-05-09T07:26:06;93226.22;;;16.72
28305;BMP280;15569;42.652;23.040;2023-05-09T07:28:31;93230.72;;;16.85
28305;BMP280;15569;42.652;23.040;2023-05-09T07:30:57;93225.47;;;16.93
28305;BMP280;15569;42.652;23.040;2023-05-09T07:33:22;93231.47;;;16.87
28305;BMP280;15569;42.652;23.040;2023-05-09T07:35:48;93230.78;;;16.87
28305;BMP280;15569;42.652;23.040;2023-05-09T07:38:13;93233.88;;;16.99
28305;BMP280;15569;42.652;23.040;2023-05-09T07:40:39;93242.03;;;16.97
28305;BMP280;15569;42.652;23.040;2023-05-09T07:43:05;93229.88;;;17.28
28305;BMP280;15569;42.652;23.040;2023-05-09T07:45:30;93232.34;;;17.17
28305;BMP280;15569;42.652;23.040;2023-05-09T07:47:56;93224.38;;;17.28
28305;BMP280;15569;42.652;23.040;2023-05-09T07:50:21;93235.38;;;17.53
28305;BMP280;15569;42.652;23.040;2023-05-09T07:52:47;93234.34;;;17.64
28305;BMP280;15569;42.652;23.040;2023-05-09T07:55:13;93228.31;;;17.72
28305;BMP280;15569;42.652;23.040;2023-05-09T07:57:39;93219.88;;;17.64
28305;BMP280;15569;42.652;23.040;2023-05-09T08:00:05;93220.97;;;17.80
28305;BMP280;15569;42.652;23.040;2023-05-09T08:02:31;93223.63;;;17.51
28305;BMP280;15569;42.652;23.040;2023-05-09T08:04:56;93208.28;;;17.67
28305;BMP280;15569;42.652;23.040;2023-05-09T08:07:22;93222.00;;;17.42
28305;BMP280;15569;42.652;23.040;2023-05-09T08:09:47;93232.50;;;17.24
28305;BMP280;15569;42.652;23.040;2023-05-09T08:12:12;93234.00;;;17.80
28305;BMP280;15569;42.652;23.040;2023-05-09T08:14:38;93226.28;;;17.72
28305;BMP280;15569;42.652;23.040;2023-05-09T08:17:03;93227.78;;;17.52
28305;BMP280;15569;42.652;23.040;2023-05-09T08:19:29;93227.44;;;17.65
28305;BMP280;15569;42.652;23.040;2023-05-09T08:21:54;93238.09;;;17.51
28305;BMP280;15569;42.652;23.040;2023-05-09T08:24:20;93241.38;;;17.46
28305;BMP280;15569;42.652;23.040;2023-05-09T08:26:45;93237.31;;;16.99
28305;BMP280;15569;42.652;23.040;2023-05-09T08:29:11;93243.59;;;16.57
28305;BMP280;15569;42.652;23.040;2023-05-09T08:31:36;93231.88;;;17.01
28305;BMP280;15569;42.652;23.040;2023-05-09T08:34:01;93247.25;;;16.87
28305;BMP280;15569;42.652;23.040;2023-05-09T08:36:27;93232.66;;;16.80
28305;BMP280;15569;42.652;23.040;2023-05-09T08:38:52;93231.72;;;17.19
28305;BMP280;15569;42.652;23.040;2023-05-09T08:41:23;93227.69;;;16.98
28305;BMP280;15569;42.652;23.040;2023-05-09T08:43:51;93220.19;;;17.76
28305;BMP280;15569;42.652;23.040;2023-05-09T08:46:23;93234.44;;;17.96
28305;BMP280;15569;42.652;23.040;2023-05-09T08:48:51;93216.59;;;17.97
28305;BMP280;15569;42.652;23.040;2023-05-09T08:51:17;93224.88;;;18.27
28305;BMP280;15569;42.652;23.040;2023-05-09T08:53:43;93232.44;;;18.26
28305;BMP280;15569;42.652;23.040;2023-05-09T08:56:08;93226.03;;;18.17
28305;BMP280;15569;42.652;23.040;2023-05-09T08:58:34;93223.47;;;17.98
28305;BMP280;15569;42.652;23.040;2023-05-09T09:01:01;93225.44;;;18.21
28305;BMP280;15569;42.652;23.040;2023-05-09T09:03:29;93234.72;;;18.65
28305;BMP280;15569;42.652;23.040;2023-05-09T09:05:55;93217.13;;;18.49
28305;BMP280;15569;42.652;23.040;2023-05-09T09:08:21;93227.63;;;18.56
28305;BMP280;15569;42.652;23.040;2023-05-09T09:10:47;93211.47;;;18.13
28305;BMP280;15569;42.652;23.040;2023-05-09T09:13:14;93224.31;;;18.02
28305;BMP280;15569;42.652;23.040;2023-05-09T09:15:42;93217.22;;;18.23
28305;BMP280;15569;42.652;23.040;2023-05-09T09:18:11;93214.22;;;18.43
28305;BMP280;15569;42.652;23.040;2023-05-09T09:20:44;93229.41;;;17.61
28305;BMP280;15569;42.652;23.040;2023-05-09T09:23:11;93209.50;;;17.88
28305;BMP280;15569;42.652;23.040;2023-05-09T09:25:38;93211.47;;;18.43
28305;BMP280;15569;42.652;23.040;2023-05-09T09:28:04;93217.22;;;18.53
28305;BMP280;15569;42.652;23.040;2023-05-09T09:30:29;93210.94;;;18.80
28305;BMP280;15569;42.652;23.040;2023-05-09T09:32:57;93222.03;;;18.52
28305;BMP280;15569;42.652;23.040;2023-05-09T09:35:23;93216.38;;;18.46
28305;BMP280;15569;42.652;23.040;2023-05-09T09:37:55;93217.72;;;18.45
28305;BMP280;15569;42.652;23.040;2023-05-09T09:40:22;93211.41;;;18.70
28305;BMP280;15569;42.652;23.040;2023-05-09T09:42:50;93217.13;;;18.49
28305;BMP280;15569;42.652;23.040;2023-05-09T09:45:18;93222.03;;;18.52
28305;BMP280;15569;42.652;23.040;2023-05-09T09:47:45;93215.44;;;18.36
28305;BMP280;15569;42.652;23.040;2023-05-09T09:50:15;93216.13;;;18.36
28305;BMP280;15569;42.652;23.040;2023-05-09T09:52:52;93225.97;;;18.75
28305;BMP280;15569;42.652;23.040;2023-05-09T09:55:18;93208.91;;;18.51
28305;BMP280;15569;42.652;23.040;2023-05-09T09:57:44;93206.00;;;18.15
28305;BMP280;15569;42.652;23.040;2023-05-09T10:00:11;93221.31;;;18.22
28305;BMP280;15569;42.652;23.040;2023-05-09T10:02:48;93197.03;;;19.07
28305;BMP280;15569;42.652;23.040;2023-05-09T10:05:23;93203.56;;;18.90
28305;BMP280;15569;42.652;23.040;2023-05-09T10:07:50;93201.22;;;19.10
28305;BMP280;15569;42.652;23.040;2023-05-09T10:10:17;93205.75;;;19.30
28305;BMP280;15569;42.652;23.040;2023-05-09T10:12:43;93185.66;;;19.25
28305;BMP280;15569;42.652;23.040;2023-05-09T10:15:09;93196.28;;;19.41
28305;BMP280;15569;42.652;23.040;2023-05-09T10:17:36;93198.06;;;19.26
28305;BMP280;15569;42.652;23.040;2023-05-09T10:20:04;93187.88;;;19.33
28305;BMP280;15569;42.652;23.040;2023-05-09T10:22:35;93194.59;;;19.23
28305;BMP280;15569;42.652;23.040;2023-05-09T10:25:26;93199.03;;;19.41
28305;BMP280;15569;42.652;23.040;2023-05-09T10:27:50;93197.28;;;18.86
28305;BMP280;15569;42.652;23.040;2023-05-09T10:30:21;93186.78;;;18.76
28305;BMP280;15569;42.652;23.040;2023-05-09T10:35:16;93188.09;;;19.45
28305;BMP280;15569;42.652;23.040;2023-05-09T10:37:44;93198.13;;;19.28
28305;BMP280;15569;42.652;23.040;2023-05-09T10:40:09;93205.34;;;19.45
28305;BMP280;15569;42.652;23.040;2023-05-09T10:42:40;93204.78;;;19.53
28305;BMP280;15569;42.652;23.040;2023-05-09T10:45:07;93191.06;;;19.57
28305;BMP280;15569;42.652;23.040;2023-05-09T10:47:33;93205.09;;;19.71
28305;BMP280;15569;42.652;23.040;2023-05-09T10:49:59;93191.03;;;19.96
28305;BMP280;15569;42.652;23.040;2023-05-09T10:52:30;93198.38;;;19.80
28305;BMP280;15569;42.652;23.040;2023-05-09T10:55:03;93195.91;;;19.56
28305;BMP280;15569;42.652;23.040;2023-05-09T10:57:30;93194.97;;;19.44
28305;BMP280;15569;42.652;23.040;2023-05-09T10:59:56;93196.88;;;19.73
28305;BMP280;15569;42.652;23.040;2023-05-09T11:02:22;93192.06;;;19.34
28305;BMP280;15569;42.652;23.040;2023-05-09T11:05:12;93192.44;;;19.97
28305;BMP280;15569;42.652;23.040;2023-05-09T11:07:38;93191.16;;;20.02
28305;BMP280;15569;42.652;23.040;2023-05-09T11:10:16;93197.56;;;19.34
28305;BMP280;15569;42.652;23.040;2023-05-09T11:12:55;93192.44;;;19.58
28305;BMP280;15569;42.652;23.040;2023-05-09T11:15:21;93193.94;;;19.25
28305;BMP280;15569;42.652;23.040;2023-05-09T11:17:50;93188.75;;;19.43
28305;BMP280;15569;42.652;23.040;2023-05-09T11:20:28;93182.94;;;18.91
28305;BMP280;15569;42.652;23.040;2023-05-09T11:22:56;93182.38;;;19.35
28305;BMP280;15569;42.652;23.040;2023-05-09T11:25:24;93182.16;;;19.22
28305;BMP280;15569;42.652;23.040;2023-05-09T11:27:58;93192.31;;;19.12
28305;BMP280;15569;42.652;23.040;2023-05-09T11:30:35;93188.34;;;18.87
28305;BMP280;15569;42.652;23.040;2023-05-09T11:33:00;93185.78;;;18.62
28305;BMP280;15569;42.652;23.040;2023-05-09T11:35:26;93189.16;;;18.60
28305;BMP280;15569;42.652;23.040;2023-05-09T11:37:58;93184.16;;;19.18
28305;BMP280;15569;42.652;23.040;2023-05-09T11:40:25;93179.09;;;19.42
28305;BMP280;15569;42.652;23.040;2023-05-09T11:42:53;93186.63;;;19.77
28305;BMP280;15569;42.652;23.040;2023-05-09T11:45:19;93191.34;;;19.73
28305;BMP280;15569;42.652;23.040;2023-05-09T11:47:46;93185.25;;;20.22
28305;BMP280;15569;42.652;23.040;2023-05-09T11:50:13;93182.28;;;20.56
28305;BMP280;15569;42.652;23.040;2023-05-09T11:52:39;93189.84;;;20.53
28305;BMP280;15569;42.652;23.040;2023-05-09T11:55:10;93178.38;;;20.25
28305;BMP280;15569;42.652;23.040;2023-05-09T11:57:43;93180.97;;;20.13
28305;BMP280;15569;42.652;23.040;2023-05-09T12:00:09;93182.66;;;20.34
28305;BMP280;15569;42.652;23.040;2023-05-09T12:02:35;93180.44;;;20.74
28305;BMP280;15569;42.652;23.040;2023-05-09T12:05:09;93183.50;;;20.94
28305;BMP280;15569;42.652;23.040;2023-05-09T12:07:38;93178.63;;;20.93
28305;BMP280;15569;42.652;23.040;2023-05-09T12:10:05;93170.78;;;20.73
28305;BMP280;15569;42.652;23.040;2023-05-09T12:12:33;93176.16;;;20.63
28305;BMP280;15569;42.652;23.040;2023-05-09T12:15:05;93177.16;;;20.34
28305;BMP280;15569;42.652;23.040;2023-05-09T12:17:31;93175.75;;;20.33
28305;BMP280;15569;42.652;23.040;2023-05-09T12:19:59;93173.31;;;20.07
28305;BMP280;15569;42.652;23.040;2023-05-09T12:22:26;93178.69;;;20.45
28305;BMP280;15569;42.652;23.040;2023-05-09T12:24:52;93171.63;;;20.34
28305;BMP280;15569;42.652;23.040;2023-05-09T12:27:18;93164.56;;;20.73
28305;BMP280;15569;42.652;23.040;2023-05-09T12:29:44;93169.47;;;20.80
28305;BMP280;15569;42.652;23.040;2023-05-09T12:32:13;93162.59;;;20.83
28305;BMP280;15569;42.652;23.040;2023-05-09T12:34:40;93163.31;;;20.82
28305;BMP280;15569;42.652;23.040;2023-05-09T12:37:16;93157.47;;;20.60
28305;BMP280;15569;42.652;23.040;2023-05-09T12:40:03;93155.25;;;20.48
28305;BMP280;15569;42.652;23.040;2023-05-09T12:42:30;93153.25;;;21.08
28305;BMP280;15569;42.652;23.040;2023-05-09T12:44:56;93147.72;;;21.10
28305;BMP280;15569;42.652;23.040;2023-05-09T12:47:25;93148.03;;;21.38
28305;BMP280;15569;42.652;23.040;2023-05-09T12:49:50;93150.63;;;21.22
28305;BMP280;15569;42.652;23.040;2023-05-09T12:52:19;93144.09;;;20.94
28305;BMP280;15569;42.652;23.040;2023-05-09T12:54:47;93144.66;;;20.84
28305;BMP280;15569;42.652;23.040;2023-05-09T12:57:23;93149.41;;;20.76
28305;BMP280;15569;42.652;23.040;2023-05-09T12:59:49;93139.63;;;20.71
28305;BMP280;15569;42.652;23.040;2023-05-09T13:02:15;93135.59;;;20.24
28305;BMP280;15569;42.652;23.040;2023-05-09T13:04:40;93133.00;;;20.36
28305;BMP280;15569;42.652;23.040;2023-05-09T13:07:09;93139.50;;;20.59
28305;BMP280;15569;42.652;23.040;2023-05-09T13:09:35;93138.78;;;20.06
28305;BMP280;15569;42.652;23.040;2023-05-09T13:12:02;93131.75;;;19.97
28305;BMP280;15569;42.652;23.040;2023-05-09T13:14:34;93145.63;;;19.60
28305;BMP280;15569;42.652;23.040;2023-05-09T13:16:59;93133.16;;;19.98
28305;BMP280;15569;42.652;23.040;2023-05-09T13:19:24;93139.88;;;19.08
28305;BMP280;15569;42.652;23.040;2023-05-09T13:21:53;93142.22;;;19.23
28305;BMP280;15569;42.652;23.040;2023-05-09T13:24:19;93137.56;;;18.94
28305;BMP280;15569;42.652;23.040;2023-05-09T13:26:44;93135.13;;;19.12
28305;BMP280;15569;42.652;23.040;2023-05-09T13:29:09;93144.28;;;18.87
28305;BMP280;15569;42.652;23.040;2023-05-09T13:31:35;93136.25;;;18.32
28305;BMP280;15569;42.652;23.040;2023-05-09T13:34:00;93138.66;;;18.18
28305;BMP280;15569;42.652;23.040;2023-05-09T13:36:26;93138.44;;;18.08
28305;BMP280;15569;42.652;23.040;2023-05-09T13:38:51;93130.03;;;18.00
28305;BMP280;15569;42.652;23.040;2023-05-09T13:41:17;93141.78;;;17.75
28305;BMP280;15569;42.652;23.040;2023-05-09T13:43:46;93142.09;;;17.59
28305;BMP280;15569;42.652;23.040;2023-05-09T13:46:11;93135.94;;;17.88
28305;BMP280;15569;42.652;23.040;2023-05-09T13:48:37;93145.56;;;17.89
28305;BMP280;15569;42.652;23.040;2023-05-09T13:51:03;93135.00;;;17.80
28305;BMP280;15569;42.652;23.040;2023-05-09T13:53:30;93133.56;;;17.77
28305;BMP280;15569;42.652;23.040;2023-05-09T13:55:55;93140.72;;;17.58
28305;BMP280;15569;42.652;23.040;2023-05-09T13:58:21;93140.72;;;17.07
28305;BMP280;15569;42.652;23.040;2023-05-09T14:00:46;93140.50;;;16.99
28305;BMP280;15569;42.652;23.040;2023-05-09T14:03:12;93136.28;;;16.96
28305;BMP280;15569;42.652;23.040;2023-05-09T14:05:37;93130.13;;;16.95